sensor_id;sensor_type;location;lat;lon;timestamp;pressure;altitude;pressure_sealevel;temperature;humidity
76730;BME280;65653;53.106;18.046;2023-02-28T00:00:37;102485.23;;;-5.13;80.15
76730;BME280;65653;53.106;18.046;2023-02-28T00:03:15;102490.61;;;-5.12;80.18
76730;BME280;65653;53.106;18.046;2023-02-28T00:05:42;102493.59;;;-5.10;80.12
76730;BME280;65653;53.106;18.046;2023-02-28T00:08:09;102493.78;;;-5.11;80.21
76730;BME280;65653;53.106;18.046;2023-02-28T00:10:36;102493.27;;;-5.11;80.32
76730;BME280;65653;53.106;18.046;2023-02-28T00:13:06;102488.88;;;-5.14;80.35
76730;BME280;65653;53.106;18.046;2023-02-28T00:15:32;102493.09;;;-5.20;80.38
76730;BME280;65653;53.106;18.046;2023-02-28T00:17:59;102489.84;;;-5.29;80.40
76730;BME280;65653;53.106;18.046;2023-02-28T00:20:26;102489.94;;;-5.31;80.57
76730;BME280;65653;53.106;18.046;2023-02-28T00:22:53;102491.98;;;-5.33;80.69
76730;BME280;65653;53.106;18.046;2023-02-28T00:25:23;102494.46;;;-5.32;80.94
76730;BME280;65653;53.106;18.046;2023-02-28T00:27:50;102494.87;;;-5.28;80.93
76730;BME280;65653;53.106;18.046;2023-02-28T00:30:19;102490.63;;;-5.26;81.01
76730;BME280;65653;53.106;18.046;2023-02-28T00:32:46;102487.75;;;-5.26;80.88
76730;BME280;65653;53.106;18.046;2023-02-28T00:35:13;102489.64;;;-5.29;80.79
76730;BME280;65653;53.106;18.046;2023-02-28T00:37:40;102493.05;;;-5.32;80.86
76730;BME280;65653;53.106;18.046;2023-02-28T00:40:08;102491.99;;;-5.37;81.08
76730;BME280;65653;53.106;18.046;2023-02-28T00:42:35;102491.11;;;-5.42;81.17
76730;BME280;65653;53.106;18.046;2023-02-28T00:45:03;102490.21;;;-5.47;81.08
76730;BME280;65653;53.106;18.046;2023-02-28T00:47:33;102489.09;;;-5.50;81.04
76730;BME280;65653;53.106;18.046;2023-02-28T00:50:00;102490.61;;;-5.53;81.06
76730;BME280;65653;53.106;18.046;2023-02-28T00:52:28;102490.71;;;-5.50;81.51
76730;BME280;65653;53.106;18.046;2023-02-28T00:54:55;102489.63;;;-5.50;81.26
76730;BME280;65653;53.106;18.046;2023-02-28T00:57:22;102491.66;;;-5.47;81.57
76730;BME280;65653;53.106;18.046;2023-02-28T00:59:48;102492.27;;;-5.44;81.64
76730;BME280;65653;53.106;18.046;2023-02-28T01:02:15;102492.70;;;-5.46;81.49
76730;BME280;65653;53.106;18.046;2023-02-28T01:04:42;102494.14;;;-5.51;81.39
76730;BME280;65653;53.106;18.046;2023-02-28T01:07:08;102497.67;;;-5.54;81.60
76730;BME280;65653;53.106;18.046;2023-02-28T01:09:35;102499.98;;;-5.57;81.75
76730;BME280;65653;53.106;18.046;2023-02-28T01:12:01;102501.55;;;-5.61;81.79
76730;BME280;65653;53.106;18.046;2023-02-28T01:14:28;102507.02;;;-5.62;81.71
76730;BME280;65653;53.106;18.046;2023-02-28T01:16:54;102506.81;;;-5.62;81.83
76730;BME280;65653;53.106;18.046;2023-02-28T01:19:20;102505.83;;;-5.60;81.91
76730;BME280;65653;53.106;18.046;2023-02-28T01:21:47;102504.39;;;-5.59;81.94
76730;BME280;65653;53.106;18.046;2023-02-28T01:24:13;102503.36;;;-5.61;81.84
76730;BME280;65653;53.106;18.046;2023-02-28T01:26:40;102501.61;;;-5.62;81.89
76730;BME280;65653;53.106;18.046;2023-02-28T01:29:06;102497.61;;;-5.66;81.83
76730;BME280;65653;53.106;18.046;2023-02-28T01:31:33;102493.98;;;-5.70;82.03
76730;BME280;65653;53.106;18.046;2023-02-28T01:34:00;102494.11;;;-5.73;81.97
76730;BME280;65653;53.106;18.046;2023-02-28T01:36:27;102490.79;;;-5.76;82.07
76730;BME280;65653;53.106;18.046;2023-02-28T01:38:53;102487.15;;;-5.74;82.13
76730;BME280;65653;53.106;18.046;2023-02-28T01:41:26;102486.09;;;-5.70;82.13
76730;BME280;65653;53.106;18.046;2023-02-28T01:46:20;102489.64;;;-5.69;82.17
76730;BME280;65653;53.106;18.046;2023-02-28T01:48:51;102489.80;;;-5.73;82.08
76730;BME280;65653;53.106;18.046;2023-02-28T01:51:22;102489.71;;;-5.80;81.99
76730;BME280;65653;53.106;18.046;2023-02-28T01:53:52;102488.36;;;-5.87;82.24
76730;BME280;65653;53.106;18.046;2023-02-28T01:56:24;102486.48;;;-5.94;82.20
76730;BME280;65653;53.106;18.046;2023-02-28T01:58:54;102483.23;;;-5.98;82.25
76730;BME280;65653;53.106;18.046;2023-02-28T02:01:21;102483.00;;;-5.97;82.36
76730;BME280;65653;53.106;18.046;2023-02-28T02:03:51;102483.55;;;-5.97;82.39
76730;BME280;65653;53.106;18.046;2023-02-28T02:06:30;102483.29;;;-5.99;82.43
76730;BME280;65653;53.106;18.046;2023-02-28T02:08:59;102478.70;;;-6.02;82.74
76730;BME280;65653;53.106;18.046;2023-02-28T02:11:26;102477.92;;;-6.05;82.84
76730;BME280;65653;53.106;18.046;2023-02-28T02:14:16;102478.26;;;-6.09;82.70
76730;BME280;65653;53.106;18.046;2023-02-28T02:20:00;102485.33;;;-6.15;82.63
76730;BME280;65653;53.106;18.046;2023-02-28T02:25:37;102486.45;;;-6.12;82.84
76730;BME280;65653;53.106;18.046;2023-02-28T02:31:11;102488.45;;;-6.13;82.78
76730;BME280;65653;53.106;18.046;2023-02-28T02:34:16;102493.56;;;-6.15;82.75
76730;BME280;65653;53.106;18.046;2023-02-28T02:36:51;102493.02;;;-6.20;82.75
76730;BME280;65653;53.106;18.046;2023-02-28T02:39:31;102494.23;;;-6.23;83.00
76730;BME280;65653;53.106;18.046;2023-02-28T02:42:09;102495.77;;;-6.25;83.14
76730;BME280;65653;53.106;18.046;2023-02-28T02:44:45;102488.80;;;-6.27;83.08
76730;BME280;65653;53.106;18.046;2023-02-28T02:47:20;102490.59;;;-6.27;83.03
76730;BME280;65653;53.106;18.046;2023-02-28T02:49:55;102493.04;;;-6.25;83.16
76730;BME280;65653;53.106;18.046;2023-02-28T02:52:27;102495.04;;;-6.25;83.02
76730;BME280;65653;53.106;18.046;2023-02-28T02:54:56;102500.19;;;-6.24;83.14
76730;BME280;65653;53.106;18.046;2023-02-28T02:57:30;102496.39;;;-6.23;83.27
76730;BME280;65653;53.106;18.046;2023-02-28T03:00:00;102495.70;;;-6.24;83.08
76730;BME280;65653;53.106;18.046;2023-02-28T03:02:29;102496.59;;;-6.29;83.02
76730;BME280;65653;53.106;18.046;2023-02-28T03:05:04;102493.59;;;-6.35;83.18
76730;BME280;65653;53.106;18.046;2023-02-28T03:07:32;102490.97;;;-6.37;83.47
76730;BME280;65653;53.106;18.046;2023-02-28T03:09:59;102495.92;;;-6.36;83.46
76730;BME280;65653;53.106;18.046;2023-02-28T03:12:48;102499.41;;;-6.32;83.68
76730;BME280;65653;53.106;18.046;2023-02-28T03:15:27;102494.81;;;-6.34;83.49
76730;BME280;65653;53.106;18.046;2023-02-28T03:18:08;102497.77;;;-6.31;83.49
76730;BME280;65653;53.106;18.046;2023-02-28T03:21:09;102499.69;;;-6.30;83.44
76730;BME280;65653;53.106;18.046;2023-02-28T03:23:42;102497.46;;;-6.33;83.32
76730;BME280;65653;53.106;18.046;2023-02-28T03:26:18;102494.58;;;-6.38;83.36
76730;BME280;65653;53.106;18.046;2023-02-28T03:28:53;102497.02;;;-6.41;83.49
76730;BME280;65653;53.106;18.046;2023-02-28T03:31:27;102500.89;;;-6.43;83.68
76730;BME280;65653;53.106;18.046;2023-02-28T03:34:01;102500.52;;;-6.43;83.68
76730;BME280;65653;53.106;18.046;2023-02-28T03:36:35;102501.33;;;-6.45;83.57
76730;BME280;65653;53.106;18.046;2023-02-28T03:39:16;102505.33;;;-6.47;83.47
76730;BME280;65653;53.106;18.046;2023-02-28T03:41:48;102501.45;;;-6.49;83.49
76730;BME280;65653;53.106;18.046;2023-02-28T03:44:21;102501.98;;;-6.48;83.61
76730;BME280;65653;53.106;18.046;2023-02-28T03:46:56;102505.77;;;-6.50;83.47
76730;BME280;65653;53.106;18.046;2023-02-28T03:49:32;102511.29;;;-6.53;83.32
76730;BME280;65653;53.106;18.046;2023-02-28T03:52:02;102509.82;;;-6.57;83.33
76730;BME280;65653;53.106;18.046;2023-02-28T03:54:33;102514.86;;;-6.62;83.15
76730;BME280;65653;53.106;18.046;2023-02-28T03:59:52;102512.33;;;-6.67;83.31
76730;BME280;65653;53.106;18.046;2023-02-28T04:02:23;102513.09;;;-6.64;83.90
76730;BME280;65653;53.106;18.046;2023-02-28T04:04:49;102512.22;;;-6.59;83.86
76730;BME280;65653;53.106;18.046;2023-02-28T04:07:17;102511.60;;;-6.56;83.65
76730;BME280;65653;53.106;18.046;2023-02-28T04:09:44;102518.32;;;-6.54;83.83
76730;BME280;65653;53.106;18.046;2023-02-28T04:12:10;102520.66;;;-6.54;83.78
76730;BME280;65653;53.106;18.046;2023-02-28T04:14:37;102525.48;;;-6.58;83.70
76730;BME280;65653;53.106;18.046;2023-02-28T04:17:03;102528.31;;;-6.62;84.04
76730;BME280;65653;53.106;18.046;2023-02-28T04:19:30;102525.32;;;-6.64;84.62
76730;BME280;65653;53.106;18.046;2023-02-28T04:21:56;102522.33;;;-6.66;85.01
76730;BME280;65653;53.106;18.046;2023-02-28T04:24:25;102524.53;;;-6.62;85.47
76730;BME280;65653;53.106;18.046;2023-02-28T04:26:53;102524.52;;;-6.56;85.49
76730;BME280;65653;53.106;18.046;2023-02-28T04:29:25;102529.15;;;-6.50;85.55
76730;BME280;65653;53.106;18.046;2023-02-28T04:31:53;102521.63;;;-6.45;85.37
76730;BME280;65653;53.106;18.046;2023-02-28T04:34:21;102524.34;;;-6.41;85.22
76730;BME280;65653;53.106;18.046;2023-02-28T04:36:48;102524.67;;;-6.40;85.02
76730;BME280;65653;53.106;18.046;2023-02-28T04:39:24;102524.70;;;-6.41;84.86
76730;BME280;65653;53.106;18.046;2023-02-28T04:41:50;102526.96;;;-6.44;84.88
76730;BME280;65653;53.106;18.046;2023-02-28T04:44:17;102527.08;;;-6.53;84.59
76730;BME280;65653;53.106;18.046;2023-02-28T04:46:44;102529.41;;;-6.57;84.71
76730;BME280;65653;53.106;18.046;2023-02-28T04:49:11;102531.95;;;-6.58;84.62
76730;BME280;65653;53.106;18.046;2023-02-28T04:51:38;102529.77;;;-6.58;84.51
76730;BME280;65653;53.106;18.046;2023-02-28T04:54:05;102534.48;;;-6.54;84.58
76730;BME280;65653;53.106;18.046;2023-02-28T04:56:32;102534.76;;;-6.51;84.64
76730;BME280;65653;53.106;18.046;2023-02-28T04:58:59;102539.67;;;-6.53;84.34
76730;BME280;65653;53.106;18.046;2023-02-28T05:01:28;102536.91;;;-6.56;84.36
76730;BME280;65653;53.106;18.046;2023-02-28T05:03:57;102535.50;;;-6.57;84.51
76730;BME280;65653;53.106;18.046;2023-02-28T05:06:28;102536.70;;;-6.61;84.59
76730;BME280;65653;53.106;18.046;2023-02-28T05:08:55;102537.34;;;-6.63;84.56
76730;BME280;65653;53.106;18.046;2023-02-28T05:11:25;102535.34;;;-6.63;84.58
76730;BME280;65653;53.106;18.046;2023-02-28T05:13:52;102535.86;;;-6.62;84.56
76730;BME280;65653;53.106;18.046;2023-02-28T05:16:20;102539.05;;;-6.61;84.45
76730;BME280;65653;53.106;18.046;2023-02-28T05:18:47;102541.83;;;-6.63;84.25
76730;BME280;65653;53.106;18.046;2023-02-28T05:21:35;102543.54;;;-6.67;84.26
76730;BME280;65653;53.106;18.046;2023-02-28T05:24:06;102541.33;;;-6.70;84.30
76730;BME280;65653;53.106;18.046;2023-02-28T05:26:41;102538.44;;;-6.74;84.36
76730;BME280;65653;53.106;18.046;2023-02-28T05:29:08;102542.45;;;-6.77;84.39
76730;BME280;65653;53.106;18.046;2023-02-28T05:31:35;102538.28;;;-6.75;84.80
76730;BME280;65653;53.106;18.046;2023-02-28T05:34:02;102537.52;;;-6.74;84.82
76730;BME280;65653;53.106;18.046;2023-02-28T05:36:30;102536.63;;;-6.75;84.55
76730;BME280;65653;53.106;18.046;2023-02-28T05:38:57;102537.30;;;-6.73;84.62
76730;BME280;65653;53.106;18.046;2023-02-28T05:41:23;102536.25;;;-6.74;84.31
76730;BME280;65653;53.106;18.046;2023-02-28T05:43:49;102542.38;;;-6.74;84.16
76730;BME280;65653;53.106;18.046;2023-02-28T05:46:16;102545.00;;;-6.77;84.14
76730;BME280;65653;53.106;18.046;2023-02-28T05:48:47;102545.02;;;-6.78;84.44
76730;BME280;65653;53.106;18.046;2023-02-28T05:51:13;102546.58;;;-6.77;84.38
76730;BME280;65653;53.106;18.046;2023-02-28T05:53:40;102551.12;;;-6.73;84.23
76730;BME280;65653;53.106;18.046;2023-02-28T05:56:06;102550.57;;;-6.67;84.02
76730;BME280;65653;53.106;18.046;2023-02-28T05:58:32;102553.90;;;-6.59;83.91
76730;BME280;65653;53.106;18.046;2023-02-28T06:01:01;102552.92;;;-6.52;83.78
76730;BME280;65653;53.106;18.046;2023-02-28T06:03:44;102551.77;;;-6.44;83.64
76730;BME280;65653;53.106;18.046;2023-02-28T06:06:11;102556.23;;;-6.38;83.84
76730;BME280;65653;53.106;18.046;2023-02-28T06:08:37;102555.04;;;-6.35;83.87
76730;BME280;65653;53.106;18.046;2023-02-28T06:11:04;102557.73;;;-6.35;83.74
76730;BME280;65653;53.106;18.046;2023-02-28T06:13:31;102558.24;;;-6.34;83.51
76730;BME280;65653;53.106;18.046;2023-02-28T06:16:00;102564.52;;;-6.28;83.59
76730;BME280;65653;53.106;18.046;2023-02-28T06:18:27;102558.39;;;-6.18;83.56
76730;BME280;65653;53.106;18.046;2023-02-28T06:20:54;102562.91;;;-6.09;83.44
76730;BME280;65653;53.106;18.046;2023-02-28T06:23:22;102562.45;;;-6.01;83.16
76730;BME280;65653;53.106;18.046;2023-02-28T06:25:48;102564.45;;;-5.92;83.23
76730;BME280;65653;53.106;18.046;2023-02-28T06:28:15;102565.36;;;-5.79;83.38
76730;BME280;65653;53.106;18.046;2023-02-28T06:30:42;102565.35;;;-5.73;83.09
76730;BME280;65653;53.106;18.046;2023-02-28T06:33:08;102565.33;;;-5.68;83.02
76730;BME280;65653;53.106;18.046;2023-02-28T06:35:35;102568.00;;;-5.57;82.94
76730;BME280;65653;53.106;18.046;2023-02-28T06:38:01;102566.84;;;-5.46;82.63
76730;BME280;65653;53.106;18.046;2023-02-28T06:40:28;102566.19;;;-5.34;82.24
76730;BME280;65653;53.106;18.046;2023-02-28T06:42:54;102572.20;;;-5.22;81.91
76730;BME280;65653;53.106;18.046;2023-02-28T06:45:20;102571.98;;;-5.12;81.69
76730;BME280;65653;53.106;18.046;2023-02-28T06:47:47;102573.97;;;-5.03;81.66
76730;BME280;65653;53.106;18.046;2023-02-28T06:50:18;102575.13;;;-4.96;81.52
76730;BME280;65653;53.106;18.046;2023-02-28T06:52:46;102578.42;;;-4.88;81.62
76730;BME280;65653;53.106;18.046;2023-02-28T06:55:12;102576.48;;;-4.81;81.65
76730;BME280;65653;53.106;18.046;2023-02-28T06:57:39;102577.75;;;-4.72;81.40
76730;BME280;65653;53.106;18.046;2023-02-28T07:00:10;102579.54;;;-4.63;81.38
76730;BME280;65653;53.106;18.046;2023-02-28T07:02:37;102582.17;;;-4.53;81.24
76730;BME280;65653;53.106;18.046;2023-02-28T07:05:05;102588.09;;;-4.39;81.11
76730;BME280;65653;53.106;18.046;2023-02-28T07:07:32;102600.09;;;-4.24;80.99
76730;BME280;65653;53.106;18.046;2023-02-28T07:09:59;102588.53;;;-4.08;81.22
76730;BME280;65653;53.106;18.046;2023-02-28T07:12:25;102587.53;;;-3.89;80.97
76730;BME280;65653;53.106;18.046;2023-02-28T07:14:52;102587.84;;;-3.72;80.81
76730;BME280;65653;53.106;18.046;2023-02-28T07:17:18;102586.92;;;-3.60;80.85
76730;BME280;65653;53.106;18.046;2023-02-28T07:19:45;102590.02;;;-3.48;80.78
76730;BME280;65653;53.106;18.046;2023-02-28T07:22:11;102587.08;;;-3.39;80.67
76730;BME280;65653;53.106;18.046;2023-02-28T07:24:38;102586.90;;;-3.32;80.60
76730;BME280;65653;53.106;18.046;2023-02-28T07:27:05;102588.48;;;-3.23;80.59
76730;BME280;65653;53.106;18.046;2023-02-28T07:29:31;102585.77;;;-3.15;80.62
76730;BME280;65653;53.106;18.046;2023-02-28T07:31:58;102579.55;;;-3.03;80.52
76730;BME280;65653;53.106;18.046;2023-02-28T07:34:24;102577.75;;;-2.88;80.80
76730;BME280;65653;53.106;18.046;2023-02-28T07:36:53;102575.63;;;-2.74;80.33
76730;BME280;65653;53.106;18.046;2023-02-28T07:39:21;102578.23;;;-2.61;79.85
76730;BME280;65653;53.106;18.046;2023-02-28T07:41:48;102578.52;;;-2.45;79.69
76730;BME280;65653;53.106;18.046;2023-02-28T07:44:14;102577.44;;;-2.35;79.30
76730;BME280;65653;53.106;18.046;2023-02-28T07:46:41;102577.67;;;-2.26;79.10
76730;BME280;65653;53.106;18.046;2023-02-28T07:49:08;102574.20;;;-2.18;78.98
76730;BME280;65653;53.106;18.046;2023-02-28T07:51:34;102571.27;;;-2.06;78.85
76730;BME280;65653;53.106;18.046;2023-02-28T07:54:01;102570.30;;;-1.95;78.90
76730;BME280;65653;53.106;18.046;2023-02-28T07:56:28;102573.83;;;-1.83;78.70
76730;BME280;65653;53.106;18.046;2023-02-28T07:58:54;102576.33;;;-1.56;78.37
76730;BME280;65653;53.106;18.046;2023-02-28T08:01:21;102576.57;;;-1.40;77.73
76730;BME280;65653;53.106;18.046;2023-02-28T08:03:48;102575.98;;;-1.29;77.51
76730;BME280;65653;53.106;18.046;2023-02-28T08:06:17;102576.08;;;-0.74;76.43
76730;BME280;65653;53.106;18.046;2023-02-28T08:08:43;102575.83;;;0.09;74.23
76730;BME280;65653;53.106;18.046;2023-02-28T08:11:10;102574.65;;;0.80;72.05
76730;BME280;65653;53.106;18.046;2023-02-28T08:13:37;102574.86;;;1.55;70.53
76730;BME280;65653;53.106;18.046;2023-02-28T08:16:03;102573.45;;;2.23;68.38
76730;BME280;65653;53.106;18.046;2023-02-28T08:18:30;102572.60;;;2.83;66.66
76730;BME280;65653;53.106;18.046;2023-02-28T08:20:58;102567.49;;;3.40;65.71
76730;BME280;65653;53.106;18.046;2023-02-28T08:23:25;102567.16;;;3.63;63.56
76730;BME280;65653;53.106;18.046;2023-02-28T08:25:55;102565.15;;;4.03;63.99
76730;BME280;65653;53.106;18.046;2023-02-28T08:28:22;102562.90;;;4.66;63.02
76730;BME280;65653;53.106;18.046;2023-02-28T08:30:49;102556.02;;;5.10;61.58
76730;BME280;65653;53.106;18.046;2023-02-28T08:33:16;102557.13;;;5.58;60.28
76730;BME280;65653;53.106;18.046;2023-02-28T08:35:42;102552.01;;;6.10;57.91
76730;BME280;65653;53.106;18.046;2023-02-28T08:38:08;102545.35;;;6.35;56.00
76730;BME280;65653;53.106;18.046;2023-02-28T08:40:35;102547.48;;;6.47;54.49
76730;BME280;65653;53.106;18.046;2023-02-28T08:43:01;102545.85;;;6.92;55.77
76730;BME280;65653;53.106;18.046;2023-02-28T08:45:28;102539.64;;;7.49;53.90
76730;BME280;65653;53.106;18.046;2023-02-28T08:47:55;102532.45;;;7.93;51.82
76730;BME280;65653;53.106;18.046;2023-02-28T08:50:22;102528.90;;;8.43;51.63
76730;BME280;65653;53.106;18.046;2023-02-28T08:52:49;102528.50;;;8.73;49.28
76730;BME280;65653;53.106;18.046;2023-02-28T08:55:16;102529.42;;;9.03;48.82
76730;BME280;65653;53.106;18.046;2023-02-28T08:57:43;102526.84;;;9.60;49.41
76730;BME280;65653;53.106;18.046;2023-02-28T09:00:10;102527.09;;;9.96;50.27
76730;BME280;65653;53.106;18.046;2023-02-28T09:02:40;102521.66;;;10.29;48.38
76730;BME280;65653;53.106;18.046;2023-02-28T09:05:08;102518.62;;;10.87;47.25
76730;BME280;65653;53.106;18.046;2023-02-28T09:07:35;102513.69;;;11.29;45.22
76730;BME280;65653;53.106;18.046;2023-02-28T09:10:02;102513.29;;;11.33;44.30
76730;BME280;65653;53.106;18.046;2023-02-28T09:12:33;102516.29;;;11.59;44.31
76730;BME280;65653;53.106;18.046;2023-02-28T09:15:01;102521.34;;;12.10;43.26
76730;BME280;65653;53.106;18.046;2023-02-28T09:17:28;102520.64;;;12.33;43.82
76730;BME280;65653;53.106;18.046;2023-02-28T09:19:55;102521.13;;;12.59;42.78
76730;BME280;65653;53.106;18.046;2023-02-28T09:22:21;102528.20;;;11.16;43.37
76730;BME280;65653;53.106;18.046;2023-02-28T09:24:48;102524.56;;;9.20;47.66
76730;BME280;65653;53.106;18.046;2023-02-28T09:27:14;102530.33;;;8.18;49.67
76730;BME280;65653;53.106;18.046;2023-02-28T09:29:41;102532.71;;;7.42;49.86
76730;BME280;65653;53.106;18.046;2023-02-28T09:32:08;102537.40;;;6.83;50.96
76730;BME280;65653;53.106;18.046;2023-02-28T09:34:34;102534.55;;;6.37;50.04
76730;BME280;65653;53.106;18.046;2023-02-28T09:37:03;102533.60;;;5.90;51.17
76730;BME280;65653;53.106;18.046;2023-02-28T09:39:29;102531.39;;;5.55;51.75
76730;BME280;65653;53.106;18.046;2023-02-28T09:41:56;102534.88;;;5.25;50.94
76730;BME280;65653;53.106;18.046;2023-02-28T09:44:36;102536.59;;;5.06;50.94
76730;BME280;65653;53.106;18.046;2023-02-28T09:47:13;102542.06;;;4.86;52.25
76730;BME280;65653;53.106;18.046;2023-02-28T09:49:46;102543.02;;;4.77;50.70
76730;BME280;65653;53.106;18.046;2023-02-28T09:52:17;102544.90;;;4.72;50.87
76730;BME280;65653;53.106;18.046;2023-02-28T09:54:45;102542.69;;;4.74;51.54
76730;BME280;65653;53.106;18.046;2023-02-28T09:57:36;102541.17;;;4.68;50.78
76730;BME280;65653;53.106;18.046;2023-02-28T10:00:21;102537.64;;;4.60;50.13
76730;BME280;65653;53.106;18.046;2023-02-28T10:03:22;102536.11;;;4.65;50.53
76730;BME280;65653;53.106;18.046;2023-02-28T10:06:18;102530.66;;;4.67;50.97
76730;BME280;65653;53.106;18.046;2023-02-28T10:09:04;102527.26;;;4.71;51.38
76730;BME280;65653;53.106;18.046;2023-02-28T10:11:37;102529.04;;;4.87;50.89
76730;BME280;65653;53.106;18.046;2023-02-28T10:14:12;102528.07;;;4.92;51.24
76730;BME280;65653;53.106;18.046;2023-02-28T10:16:45;102525.77;;;5.20;51.02
76730;BME280;65653;53.106;18.046;2023-02-28T10:22:02;102529.42;;;5.52;50.00
76730;BME280;65653;53.106;18.046;2023-02-28T10:24:47;102527.64;;;5.78;49.65
76730;BME280;65653;53.106;18.046;2023-02-28T10:27:17;102529.16;;;5.92;49.38
76730;BME280;65653;53.106;18.046;2023-02-28T10:29:45;102527.70;;;5.96;49.43
76730;BME280;65653;53.106;18.046;2023-02-28T10:32:17;102525.08;;;6.07;48.48
76730;BME280;65653;53.106;18.046;2023-02-28T10:34:44;102513.16;;;6.10;49.35
76730;BME280;65653;53.106;18.046;2023-02-28T10:37:12;102506.68;;;6.29;47.75
76730;BME280;65653;53.106;18.046;2023-02-28T10:39:42;102505.52;;;6.36;46.46
76730;BME280;65653;53.106;18.046;2023-02-28T10:45:13;102503.22;;;6.26;47.55
76730;BME280;65653;53.106;18.046;2023-02-28T10:58:58;102483.40;;;6.98;44.61
76730;BME280;65653;53.106;18.046;2023-02-28T11:03:58;102483.14;;;7.04;45.14
76730;BME280;65653;53.106;18.046;2023-02-28T11:06:33;102482.75;;;7.33;45.17
76730;BME280;65653;53.106;18.046;2023-02-28T11:09:04;102479.65;;;7.66;44.02
76730;BME280;65653;53.106;18.046;2023-02-28T11:11:43;102480.30;;;7.66;42.78
76730;BME280;65653;53.106;18.046;2023-02-28T11:14:21;102480.77;;;7.75;42.98
76730;BME280;65653;53.106;18.046;2023-02-28T11:16:49;102472.83;;;8.02;43.09
76730;BME280;65653;53.106;18.046;2023-02-28T11:19:29;102470.83;;;8.35;42.97
76730;BME280;65653;53.106;18.046;2023-02-28T11:22:00;102472.19;;;8.69;42.42
76730;BME280;65653;53.106;18.046;2023-02-28T11:24:30;102470.74;;;8.71;40.95
76730;BME280;65653;53.106;18.046;2023-02-28T11:26:58;102475.20;;;8.55;40.90
76730;BME280;65653;53.106;18.046;2023-02-28T11:29:30;102466.52;;;8.80;41.37
76730;BME280;65653;53.106;18.046;2023-02-28T11:32:02;102469.08;;;9.20;41.05
76730;BME280;65653;53.106;18.046;2023-02-28T11:34:29;102467.55;;;9.22;39.32
76730;BME280;65653;53.106;18.046;2023-02-28T11:36:57;102466.05;;;9.36;39.82
76730;BME280;65653;53.106;18.046;2023-02-28T11:39:25;102461.35;;;9.63;39.85
76730;BME280;65653;53.106;18.046;2023-02-28T11:47:12;102446.66;;;9.89;38.86
76730;BME280;65653;53.106;18.046;2023-02-28T11:50:05;102437.59;;;11.93;36.45
76730;BME280;65653;53.106;18.046;2023-02-28T11:52:48;102428.23;;;15.46;31.17
76730;BME280;65653;53.106;18.046;2023-02-28T11:55:31;102424.27;;;17.40;29.48
76730;BME280;65653;53.106;18.046;2023-02-28T11:58:33;102422.31;;;18.81;27.48
76730;BME280;65653;53.106;18.046;2023-02-28T12:06:41;102409.98;;;21.87;23.49
76730;BME280;65653;53.106;18.046;2023-02-28T12:09:13;102410.14;;;21.92;23.18
76730;BME280;65653;53.106;18.046;2023-02-28T12:11:52;102406.62;;;22.62;24.07
76730;BME280;65653;53.106;18.046;2023-02-28T12:22:47;102395.96;;;24.11;20.82
76730;BME280;65653;53.106;18.046;2023-02-28T12:26:04;102391.45;;;23.85;19.86
76730;BME280;65653;53.106;18.046;2023-02-28T12:28:12;102389.20;;;23.53;19.93
76730;BME280;65653;53.106;18.046;2023-02-28T12:30:50;102388.54;;;23.64;19.61
76730;BME280;65653;53.106;18.046;2023-02-28T12:33:22;102390.09;;;23.80;19.71
76730;BME280;65653;53.106;18.046;2023-02-28T12:35:58;102387.48;;;24.12;19.83
76730;BME280;65653;53.106;18.046;2023-02-28T12:38:40;102387.60;;;23.96;20.10
76730;BME280;65653;53.106;18.046;2023-02-28T12:41:17;102381.92;;;23.46;20.18
76730;BME280;65653;53.106;18.046;2023-02-28T12:43:52;102379.61;;;23.62;19.19
76730;BME280;65653;53.106;18.046;2023-02-28T12:46:30;102381.41;;;23.48;18.57
76730;BME280;65653;53.106;18.046;2023-02-28T12:49:04;102380.84;;;23.07;19.71
76730;BME280;65653;53.106;18.046;2023-02-28T12:51:32;102376.23;;;23.75;19.98
76730;BME280;65653;53.106;18.046;2023-02-28T12:59:44;102359.98;;;23.82;18.15
76730;BME280;65653;53.106;18.046;2023-02-28T13:05:06;102352.81;;;23.60;18.42
76730;BME280;65653;53.106;18.046;2023-02-28T13:10:22;102347.31;;;23.80;18.08
76730;BME280;65653;53.106;18.046;2023-02-28T13:12:50;102344.04;;;24.24;17.60
76730;BME280;65653;53.106;18.046;2023-02-28T13:15:21;102339.78;;;24.46;17.78
76730;BME280;65653;53.106;18.046;2023-02-28T13:17:52;102338.27;;;24.39;16.91
76730;BME280;65653;53.106;18.046;2023-02-28T13:20:20;102341.66;;;24.51;17.68
76730;BME280;65653;53.106;18.046;2023-02-28T13:22:50;102335.80;;;24.70;16.52
76730;BME280;65653;53.106;18.046;2023-02-28T13:27:53;102331.73;;;24.37;16.89
76730;BME280;65653;53.106;18.046;2023-02-28T13:33:22;102332.85;;;23.90;16.99
76730;BME280;65653;53.106;18.046;2023-02-28T13:36:07;102334.00;;;23.46;17.32
76730;BME280;65653;53.106;18.046;2023-02-28T13:38:48;102331.66;;;23.42;17.15
76730;BME280;65653;53.106;18.046;2023-02-28T13:46:31;102312.86;;;23.47;16.58
76730;BME280;65653;53.106;18.046;2023-02-28T13:49:19;102315.02;;;23.84;17.14
76730;BME280;65653;53.106;18.046;2023-02-28T13:57:41;102312.12;;;23.69;16.56
76730;BME280;65653;53.106;18.046;2023-02-28T14:00:22;102307.94;;;23.52;16.71
76730;BME280;65653;53.106;18.046;2023-02-28T14:05:37;102298.80;;;22.67;16.68
76730;BME280;65653;53.106;18.046;2023-02-28T14:08:06;102298.44;;;23.18;16.82
76730;BME280;65653;53.106;18.046;2023-02-28T14:13:42;102290.56;;;22.41;16.58
76730;BME280;65653;53.106;18.046;2023-02-28T14:16:15;102290.17;;;21.76;18.01
76730;BME280;65653;53.106;18.046;2023-02-28T14:18:51;102291.27;;;21.97;17.57
76730;BME280;65653;53.106;18.046;2023-02-28T14:21:31;102286.21;;;21.70;17.71
76730;BME280;65653;53.106;18.046;2023-02-28T14:37:27;102276.95;;;20.66;19.11
76730;BME280;65653;53.106;18.046;2023-02-28T14:39:55;102272.27;;;20.58;19.13